Time;durP1;ratioP1;P1;durP2;ratioP2;P2;SDS_P1;SDS_P2;PMS_P1;PMS_P2;Temp;Humidity;BMP_temperature;BMP_pressure;BME280_temperature;BME280_humidity;BME280_pressure;Samples;Min_cycle;Max_cycle;Signal;HPM_P1;HPM_P2
2022/09/15 00:01:54;;;;;;;0.30;0.30;;;;;;;;;;7387399;19;20117;-74
2022/09/15 00:04:19;;;;;;;0.20;0.20;;;;;;;;;;7383691;19;20487;-74
2022/09/15 00:06:44;;;;;;;0.20;0.20;;;;;;;;;;7385210;19;20113;-74
2022/09/15 00:09:10;;;;;;;0.30;0.30;;;;;;;;;;7384164;19;20120;-73
2022/09/15 00:11:36;;;;;;;0.30;0.30;;;;;;;;;;7381788;19;20104;-74
2022/09/15 00:14:03;;;;;;;0.30;0.30;;;;;;;;;;7380545;19;20131;-74
2022/09/15 00:16:29;;;;;;;0.50;0.50;;;;;;;;;;7379188;19;20135;-73
2022/09/15 00:18:55;;;;;;;0.30;0.30;;;;;;;;;;7381620;19;20109;-74
2022/09/15 00:21:26;;;;;;;0.30;0.30;;;;;;;;;;7381230;19;20614;-74
2022/09/15 00:23:52;;;;;;;0.30;0.30;;;;;;;;;;7379062;19;20125;-73
2022/09/15 00:26:19;;;;;;;0.30;0.30;;;;;;;;;;7374409;19;20638;-74
2022/09/15 00:28:44;;;;;;;0.25;0.25;;;;;;;;;;7380209;19;20121;-74
2022/09/15 00:31:13;;;;;;;0.30;0.30;;;;;;;;;;7379877;19;20108;-74
2022/09/15 00:33:39;;;;;;;0.22;0.22;;;;;;;;;;7376885;19;20599;-74
2022/09/15 00:36:08;;;;;;;0.30;0.30;;;;;;;;;;7374690;19;20097;-74
2022/09/15 00:38:34;;;;;;;0.25;0.25;;;;;;;;;;7374621;19;20121;-74
2022/09/15 00:41:01;;;;;;;0.30;0.30;;;;;;;;;;7375549;19;20241;-73
2022/09/15 00:43:48;;;;;;;0.30;0.30;;;;;;;;;;7374581;19;20125;-73
2022/09/15 00:46:15;;;;;;;0.30;0.30;;;;;;;;;;7377007;19;20121;-74
2022/09/15 00:48:46;;;;;;;0.77;0.77;;;;;;;;;;7390482;19;20165;-73
2022/09/15 00:51:14;;;;;;;0.30;0.30;;;;;;;;;;7389856;19;20116;-73
2022/09/15 00:53:40;;;;;;;0.25;0.25;;;;;;;;;;7391550;19;20500;-73
2022/09/15 00:56:06;;;;;;;0.20;0.20;;;;;;;;;;7392755;19;20114;-73
2022/09/15 00:58:39;;;;;;;0.30;0.30;;;;;;;;;;7391966;19;20103;-73
2022/09/15 01:01:06;;;;;;;0.75;0.75;;;;;;;;;;7392118;19;20133;-73
2022/09/15 01:03:32;;;;;;;0.30;0.30;;;;;;;;;;7391657;19;20170;-73
2022/09/15 01:06:03;;;;;;;0.20;0.20;;;;;;;;;;7392900;19;20113;-73
2022/09/15 01:08:35;;;;;;;0.40;0.40;;;;;;;;;;7391396;19;20186;-74
2022/09/15 01:11:01;;;;;;;0.30;0.30;;;;;;;;;;7388981;19;20101;-73
2022/09/15 01:13:28;;;;;;;0.40;0.40;;;;;;;;;;7391623;19;20163;-73
2022/09/15 01:16:07;;;;;;;0.30;0.30;;;;;;;;;;7392777;19;20116;-73
2022/09/15 01:19:07;;;;;;;0.30;0.30;;;;;;;;;;7387431;19;20117;-73
2022/09/15 01:21:43;;;;;;;0.30;0.30;;;;;;;;;;7385614;19;20127;-73
2022/09/15 01:24:46;;;;;;;0.20;0.20;;;;;;;;;;7388971;19;20121;-73
2022/09/15 01:27:59;;;;;;;0.50;0.50;;;;;;;;;;7388009;19;20105;-74
2022/09/15 01:30:24;;;;;;;0.30;0.30;;;;;;;;;;7384312;19;20101;-73
2022/09/15 01:33:05;;;;;;;0.30;0.30;;;;;;;;;;7387360;19;20603;-74
2022/09/15 01:35:32;;;;;;;0.30;0.30;;;;;;;;;;7390485;19;20165;-73
2022/09/15 01:38:07;;;;;;;0.30;0.30;;;;;;;;;;7383672;19;20607;-74
2022/09/15 01:41:08;;;;;;;0.63;0.63;;;;;;;;;;7387393;19;20136;-74
2022/09/15 01:43:38;;;;;;;0.30;0.30;;;;;;;;;;7386410;19;20144;-73
2022/09/15 01:46:04;;;;;;;0.30;0.30;;;;;;;;;;7388935;19;20168;-74
2022/09/15 01:48:30;;;;;;;0.30;0.30;;;;;;;;;;7386252;19;20575;-73
2022/09/15 01:50:58;;;;;;;0.30;0.30;;;;;;;;;;7382173;19;20106;-73
2022/09/15 01:53:23;;;;;;;0.28;0.28;;;;;;;;;;7385315;19;20142;-74
2022/09/15 01:56:00;;;;;;;0.30;0.30;;;;;;;;;;7386958;19;20097;-74
2022/09/15 01:58:25;;;;;;;0.20;0.20;;;;;;;;;;7385109;19;20707;-73
2022/09/15 02:00:56;;;;;;;0.30;0.30;;;;;;;;;;7385699;19;20101;-74
2022/09/15 02:03:32;;;;;;;0.30;0.30;;;;;;;;;;7387873;19;20136;-73
2022/09/15 02:06:02;;;;;;;0.30;0.30;;;;;;;;;;7387047;19;20129;-74
2022/09/15 02:08:52;;;;;;;0.30;0.30;;;;;;;;;;7388312;19;20098;-73
2022/09/15 02:11:20;;;;;;;0.30;0.30;;;;;;;;;;7390245;19;20126;-73
2022/09/15 02:13:47;;;;;;;0.30;0.30;;;;;;;;;;7389524;19;20161;-74
2022/09/15 02:16:19;;;;;;;0.52;0.52;;;;;;;;;;7391502;19;20123;-73
2022/09/15 02:18:50;;;;;;;0.30;0.30;;;;;;;;;;7390446;19;20462;-73
2022/09/15 02:21:28;;;;;;;0.20;0.20;;;;;;;;;;7389799;19;20127;-74
2022/09/15 02:23:57;;;;;;;0.20;0.20;;;;;;;;;;7388594;19;20157;-73
2022/09/15 02:26:25;;;;;;;0.30;0.30;;;;;;;;;;7385912;19;20117;-74
2022/09/15 02:28:53;;;;;;;0.20;0.20;;;;;;;;;;7387051;19;20101;-73
2022/09/15 02:31:20;;;;;;;0.30;0.30;;;;;;;;;;7387907;19;20101;-74
2022/09/15 02:33:55;;;;;;;0.30;0.30;;;;;;;;;;7386936;19;20156;-74
2022/09/15 02:36:21;;;;;;;0.30;0.30;;;;;;;;;;7386966;19;20107;-75
2022/09/15 02:38:51;;;;;;;0.20;0.20;;;;;;;;;;7387593;19;20117;-74
2022/09/15 02:41:16;;;;;;;0.30;0.30;;;;;;;;;;7386981;19;20113;-74
2022/09/15 02:43:46;;;;;;;0.30;0.30;;;;;;;;;;7386473;19;20121;-73
2022/09/15 02:46:12;;;;;;;0.20;0.20;;;;;;;;;;7386825;19;20596;-74
2022/09/15 02:48:38;;;;;;;0.30;0.30;;;;;;;;;;7388099;19;20114;-74
2022/09/15 02:51:03;;;;;;;0.30;0.30;;;;;;;;;;7384924;19;20593;-74
2022/09/15 02:53:28;;;;;;;0.30;0.30;;;;;;;;;;7385975;19;20180;-75
2022/09/15 02:55:54;;;;;;;0.30;0.30;;;;;;;;;;7386772;19;20105;-74
2022/09/15 02:58:19;;;;;;;0.30;0.30;;;;;;;;;;7386794;19;20469;-74
2022/09/15 03:00:44;;;;;;;0.30;0.30;;;;;;;;;;7386787;19;20112;-74
2022/09/15 03:03:10;;;;;;;0.30;0.30;;;;;;;;;;7387200;19;20121;-74
2022/09/15 03:05:35;;;;;;;0.30;0.30;;;;;;;;;;7389524;19;20439;-74
2022/09/15 03:08:01;;;;;;;0.20;0.20;;;;;;;;;;7384739;19;20097;-74
2022/09/15 03:10:26;;;;;;;0.30;0.30;;;;;;;;;;7381771;19;20117;-75
2022/09/15 03:12:53;;;;;;;0.30;0.30;;;;;;;;;;7382505;19;20118;-74
2022/09/15 03:15:20;;;;;;;0.30;0.30;;;;;;;;;;7381593;19;20575;-74
2022/09/15 03:17:46;;;;;;;0.43;0.43;;;;;;;;;;7383784;19;20109;-74
2022/09/15 03:20:15;;;;;;;0.20;0.20;;;;;;;;;;7385558;19;20109;-74
2022/09/15 03:22:40;;;;;;;0.57;0.57;;;;;;;;;;7387047;19;20177;-74
2022/09/15 03:25:06;;;;;;;2.28;1.38;;;;;;;;;;7387860;19;20131;-74
2022/09/15 03:27:33;;;;;;;0.20;0.20;;;;;;;;;;7387151;19;20628;-74
2022/09/15 03:29:58;;;;;;;0.38;0.38;;;;;;;;;;7386364;19;20128;-74
2022/09/15 03:32:24;;;;;;;0.30;0.30;;;;;;;;;;7386725;19;20571;-74
2022/09/15 03:34:49;;;;;;;0.30;0.30;;;;;;;;;;7382996;19;20121;-73
2022/09/15 03:37:15;;;;;;;0.30;0.30;;;;;;;;;;7387408;19;20109;-74
2022/09/15 03:39:40;;;;;;;0.30;0.30;;;;;;;;;;7385191;19;20510;-76
2022/09/15 03:42:05;;;;;;;0.30;0.30;;;;;;;;;;7387191;19;20571;-74
2022/09/15 03:44:31;;;;;;;0.30;0.30;;;;;;;;;;7385397;19;20160;-74
2022/09/15 03:46:57;;;;;;;0.20;0.20;;;;;;;;;;7383894;19;20105;-75
2022/09/15 03:49:23;;;;;;;0.30;0.30;;;;;;;;;;7384679;19;20112;-75
2022/09/15 03:51:48;;;;;;;0.30;0.30;;;;;;;;;;7387106;19;20124;-75
2022/09/15 03:54:14;;;;;;;0.30;0.30;;;;;;;;;;7385126;19;20178;-74
2022/09/15 03:56:39;;;;;;;0.30;0.30;;;;;;;;;;7386820;19;20150;-74
2022/09/15 03:59:04;;;;;;;0.30;0.30;;;;;;;;;;7387285;19;20121;-76
2022/09/15 04:01:30;;;;;;;0.30;0.30;;;;;;;;;;7385964;19;20124;-74
2022/09/15 04:03:56;;;;;;;0.30;0.30;;;;;;;;;;7385087;19;20113;-74
2022/09/15 04:06:22;;;;;;;0.50;0.50;;;;;;;;;;7386205;19;20626;-75
2022/09/15 04:08:48;;;;;;;0.30;0.30;;;;;;;;;;7384843;19;20108;-75
2022/09/15 04:11:15;;;;;;;0.63;0.63;;;;;;;;;;7384625;19;20144;-74
2022/09/15 04:13:41;;;;;;;0.30;0.30;;;;;;;;;;7384178;19;20121;-74
2022/09/15 04:16:10;;;;;;;0.30;0.30;;;;;;;;;;7386217;19;20190;-74
2022/09/15 04:18:35;;;;;;;0.30;0.30;;;;;;;;;;7385690;19;20148;-76
2022/09/15 04:21:04;;;;;;;0.40;0.40;;;;;;;;;;7384268;19;20109;-74
2022/09/15 04:23:30;;;;;;;0.30;0.30;;;;;;;;;;7384400;19;20575;-74
2022/09/15 04:25:56;;;;;;;0.30;0.30;;;;;;;;;;7385207;19;20121;-74
2022/09/15 04:28:23;;;;;;;0.30;0.30;;;;;;;;;;7385240;19;20130;-75
2022/09/15 04:30:48;;;;;;;0.30;0.30;;;;;;;;;;7384517;19;20122;-74
2022/09/15 04:33:14;;;;;;;0.25;0.25;;;;;;;;;;7385889;19;20567;-74
2022/09/15 04:35:39;;;;;;;0.20;0.20;;;;;;;;;;7385255;19;20135;-74
2022/09/15 04:38:05;;;;;;;0.30;0.30;;;;;;;;;;7386767;19;20126;-74
2022/09/15 04:40:30;;;;;;;0.32;0.32;;;;;;;;;;7385591;19;20459;-75
2022/09/15 04:42:56;;;;;;;0.30;0.30;;;;;;;;;;7386069;19;20109;-75
2022/09/15 04:45:21;;;;;;;0.20;0.20;;;;;;;;;;7385187;19;20105;-74
2022/09/15 04:47:47;;;;;;;0.30;0.30;;;;;;;;;;7386658;19;20206;-74
2022/09/15 04:50:13;;;;;;;0.30;0.30;;;;;;;;;;7382764;19;20106;-75
2022/09/15 06:46:57;;;;;;;0.30;0.30;;;;;;;;;;7379253;19;20196;-73
2022/09/15 06:49:22;;;;;;;0.30;0.30;;;;;;;;;;7381061;19;20955;-74
2022/09/15 06:51:47;;;;;;;0.30;0.30;;;;;;;;;;7381890;19;20136;-74
2022/09/15 06:54:14;;;;;;;0.30;0.30;;;;;;;;;;7379824;19;20239;-73
2022/09/15 06:56:40;;;;;;;0.30;0.30;;;;;;;;;;7374869;19;20113;-73
2022/09/15 06:59:06;;;;;;;0.30;0.30;;;;;;;;;;7374869;19;20101;-74
2022/09/15 07:01:31;;;;;;;0.75;0.75;;;;;;;;;;7380221;19;20113;-73
2022/09/15 07:03:59;;;;;;;0.25;0.25;;;;;;;;;;7377711;19;20125;-74
2022/09/15 07:06:29;;;;;;;0.30;0.30;;;;;;;;;;7380100;19;20105;-74
2022/09/15 07:08:55;;;;;;;0.30;0.30;;;;;;;;;;7381093;19;20109;-75
2022/09/15 07:11:20;;;;;;;0.30;0.30;;;;;;;;;;7376665;19;20571;-72
2022/09/15 07:13:47;;;;;;;0.28;0.28;;;;;;;;;;7368409;19;20585;-72
2022/09/15 07:16:13;;;;;;;0.30;0.30;;;;;;;;;;7369339;19;20196;-72
2022/09/15 07:18:38;;;;;;;0.30;0.30;;;;;;;;;;7374812;19;20125;-73
2022/09/15 07:21:10;;;;;;;0.30;0.30;;;;;;;;;;7378206;19;20117;-72
2022/09/15 07:23:36;;;;;;;0.30;0.30;;;;;;;;;;7374627;19;20156;-72
2022/09/15 07:26:07;;;;;;;0.30;0.30;;;;;;;;;;7378743;19;20569;-72
2022/09/15 07:28:33;;;;;;;0.30;0.30;;;;;;;;;;7378700;19;20456;-72
2022/09/15 07:30:59;;;;;;;0.30;0.30;;;;;;;;;;7375971;19;20138;-72
2022/09/15 07:33:24;;;;;;;0.30;0.30;;;;;;;;;;7377987;19;20144;-72
2022/09/15 07:35:49;;;;;;;0.30;0.30;;;;;;;;;;7379261;19;20117;-72
2022/09/15 07:38:15;;;;;;;0.30;0.30;;;;;;;;;;7378775;19;20125;-72
2022/09/15 07:40:40;;;;;;;1.45;1.17;;;;;;;;;;7376847;19;20117;-72
2022/09/15 07:43:05;;;;;;;0.30;0.30;;;;;;;;;;7377192;19;20117;-73
2022/09/15 07:45:31;;;;;;;0.30;0.30;;;;;;;;;;7375417;19;20124;-72
2022/09/15 07:47:56;;;;;;;0.30;0.30;;;;;;;;;;7379216;19;20118;-73
2022/09/15 07:50:22;;;;;;;0.30;0.30;;;;;;;;;;7378910;19;20110;-72
2022/09/15 07:52:47;;;;;;;0.60;0.60;;;;;;;;;;7380338;19;20103;-72
2022/09/15 07:55:13;;;;;;;0.30;0.30;;;;;;;;;;7381691;19;20117;-72
2022/09/15 07:57:39;;;;;;;0.30;0.30;;;;;;;;;;7369543;19;20117;-73
2022/09/15 08:00:05;;;;;;;0.30;0.30;;;;;;;;;;7383060;19;20176;-73
2022/09/15 08:02:30;;;;;;;0.30;0.30;;;;;;;;;;7384743;19;20101;-73
2022/09/15 08:04:56;;;;;;;0.57;0.57;;;;;;;;;;7385070;19;20113;-72
2022/09/15 08:07:22;;;;;;;0.30;0.30;;;;;;;;;;7382179;19;20132;-72
2022/09/15 08:09:47;;;;;;;0.30;0.30;;;;;;;;;;7381916;19;20150;-72
2022/09/15 08:12:13;;;;;;;0.40;0.40;;;;;;;;;;7381556;19;20490;-72
2022/09/15 08:14:38;;;;;;;0.30;0.30;;;;;;;;;;7382602;19;20125;-72
2022/09/15 08:17:04;;;;;;;0.30;0.30;;;;;;;;;;7382279;19;20105;-71
2022/09/15 08:19:31;;;;;;;0.65;0.65;;;;;;;;;;7383333;19;20121;-72
2022/09/15 08:21:56;;;;;;;0.38;0.38;;;;;;;;;;7383345;19;20105;-72
2022/09/15 08:24:22;;;;;;;0.30;0.30;;;;;;;;;;7382511;19;20163;-71
2022/09/15 08:26:48;;;;;;;0.30;0.30;;;;;;;;;;7383631;19;20173;-72
2022/09/15 08:29:14;;;;;;;0.70;0.70;;;;;;;;;;7382713;19;20131;-73
2022/09/15 08:31:39;;;;;;;0.30;0.30;;;;;;;;;;7380464;19;20530;-72
2022/09/15 08:34:05;;;;;;;0.30;0.30;;;;;;;;;;7378943;19;20121;-72
2022/09/15 08:36:32;;;;;;;0.30;0.30;;;;;;;;;;7383499;19;20145;-72
2022/09/15 08:38:57;;;;;;;0.30;0.30;;;;;;;;;;7382788;19;20602;-71
2022/09/15 08:41:43;;;;;;;0.30;0.30;;;;;;;;;;7376337;19;20144;-72
2022/09/15 08:44:38;;;;;;;0.30;0.30;;;;;;;;;;7370897;19;20188;-72
2022/09/15 08:47:07;;;;;;;0.30;0.30;;;;;;;;;;7379802;19;20117;-72
2022/09/15 08:49:50;;;;;;;0.20;0.20;;;;;;;;;;7383127;19;20110;-72
2022/09/15 08:52:30;;;;;;;0.30;0.30;;;;;;;;;;7376655;19;20117;-71
2022/09/15 08:54:57;;;;;;;0.20;0.20;;;;;;;;;;7378156;19;20127;-72
2022/09/15 08:57:24;;;;;;;0.30;0.30;;;;;;;;;;7379259;19;20137;-72
2022/09/15 08:59:50;;;;;;;0.40;0.40;;;;;;;;;;7379647;19;20120;-73
2022/09/15 09:02:54;;;;;;;0.20;0.20;;;;;;;;;;7378499;19;20575;-72
2022/09/15 09:05:51;;;;;;;0.30;0.30;;;;;;;;;;7381767;19;20134;-71
2022/09/15 09:08:59;;;;;;;0.30;0.30;;;;;;;;;;7379161;19;20113;-73
2022/09/15 09:11:52;;;;;;;0.30;0.30;;;;;;;;;;7382913;19;20131;-73
2022/09/15 09:15:04;;;;;;;0.65;0.65;;;;;;;;;;7384465;19;20586;-71
2022/09/15 09:17:39;;;;;;;0.30;0.30;;;;;;;;;;7388108;19;20117;-73
2022/09/15 09:20:28;;;;;;;0.30;0.30;;;;;;;;;;7385009;19;20526;-73
2022/09/15 09:22:54;;;;;;;0.30;0.30;;;;;;;;;;7388745;19;20124;-72
2022/09/15 09:25:20;;;;;;;0.30;0.30;;;;;;;;;;7387368;19;20465;-72
2022/09/15 09:27:46;;;;;;;0.30;0.30;;;;;;;;;;7383777;19;20553;-72
2022/09/15 09:30:20;;;;;;;0.30;0.30;;;;;;;;;;7387278;19;20125;-71
2022/09/15 09:33:09;;;;;;;0.30;0.30;;;;;;;;;;7387748;19;20147;-72
2022/09/15 09:35:41;;;;;;;0.20;0.20;;;;;;;;;;7386581;19;20125;-72
2022/09/15 09:38:08;;;;;;;0.20;0.20;;;;;;;;;;7387161;19;20131;-72
2022/09/15 09:40:35;;;;;;;0.40;0.40;;;;;;;;;;7381009;19;20113;-72
2022/09/15 09:43:01;;;;;;;0.30;0.30;;;;;;;;;;7382648;19;21543;-73
2022/09/15 09:45:26;;;;;;;0.40;0.40;;;;;;;;;;7380957;19;20116;-71
2022/09/15 09:47:54;;;;;;;0.30;0.30;;;;;;;;;;7380904;19;20140;-72
2022/09/15 09:50:42;;;;;;;0.30;0.30;;;;;;;;;;7380148;19;20595;-72
2022/09/15 09:53:27;;;;;;;0.30;0.30;;;;;;;;;;7381812;19;20614;-72
2022/09/15 09:55:54;;;;;;;0.30;0.30;;;;;;;;;;7385421;19;20111;-72
2022/09/15 09:58:23;;;;;;;0.40;0.40;;;;;;;;;;7378101;19;20106;-72
2022/09/15 10:00:49;;;;;;;0.30;0.30;;;;;;;;;;7375901;19;20121;-72
2022/09/15 10:03:21;;;;;;;0.30;0.30;;;;;;;;;;7372750;19;20167;-73
2022/09/15 10:05:59;;;;;;;0.30;0.30;;;;;;;;;;7376231;19;20102;-72
2022/09/15 10:08:25;;;;;;;0.30;0.30;;;;;;;;;;7372567;19;20117;-72
2022/09/15 10:10:57;;;;;;;0.30;0.30;;;;;;;;;;7369495;19;20148;-71
2022/09/15 10:13:22;;;;;;;0.30;0.30;;;;;;;;;;7375768;19;20154;-71
2022/09/15 10:15:54;;;;;;;0.38;0.38;;;;;;;;;;7379181;19;20579;-76
2022/09/15 10:18:46;;;;;;;0.30;0.30;;;;;;;;;;7370753;19;20449;-73
2022/09/15 10:21:12;;;;;;;0.30;0.30;;;;;;;;;;7372685;19;21339;-72
2022/09/15 10:23:38;;;;;;;0.30;0.30;;;;;;;;;;7374880;19;20121;-72
2022/09/15 10:26:15;;;;;;;0.25;0.25;;;;;;;;;;7378979;19;20629;-72
2022/09/15 10:28:41;;;;;;;0.30;0.30;;;;;;;;;;7379814;19;20109;-72
2022/09/15 10:31:12;;;;;;;0.30;0.30;;;;;;;;;;7377711;19;20124;-72
2022/09/15 10:33:46;;;;;;;0.30;0.30;;;;;;;;;;7381432;19;20133;-72
2022/09/15 10:36:29;;;;;;;0.30;0.30;;;;;;;;;;7383032;19;20132;-73
2022/09/15 10:39:00;;;;;;;0.20;0.20;;;;;;;;;;7379546;19;20671;-73
2022/09/15 10:41:38;;;;;;;0.30;0.30;;;;;;;;;;7379921;19;20138;-72
2022/09/15 10:44:48;;;;;;;0.30;0.30;;;;;;;;;;7371574;19;20144;-72
2022/09/15 10:47:51;;;;;;;0.30;0.30;;;;;;;;;;7379276;19;20188;-72
2022/09/15 10:50:25;;;;;;;0.60;0.60;;;;;;;;;;7375318;19;20420;-72
2022/09/15 10:53:16;;;;;;;0.30;0.30;;;;;;;;;;7380702;19;20483;-73
2022/09/15 10:55:53;;;;;;;0.30;0.30;;;;;;;;;;7373234;19;20117;-72
2022/09/15 10:58:37;;;;;;;0.30;0.30;;;;;;;;;;7369695;19;20595;-72
2022/09/15 11:01:29;;;;;;;0.30;0.30;;;;;;;;;;7374310;19;20125;-72
2022/09/15 11:04:12;;;;;;;0.30;0.30;;;;;;;;;;7364383;19;20145;-72
2022/09/15 11:06:54;;;;;;;0.50;0.40;;;;;;;;;;7364644;19;20144;-72
2022/09/15 11:09:34;;;;;;;0.30;0.30;;;;;;;;;;7367930;19;20412;-72
2022/09/15 11:12:22;;;;;;;0.60;0.60;;;;;;;;;;7367924;19;20193;-72
2022/09/15 11:15:06;;;;;;;0.43;0.43;;;;;;;;;;7366199;19;20631;-74
2022/09/15 11:17:56;;;;;;;0.40;0.40;;;;;;;;;;7373481;19;20105;-72
2022/09/15 11:20:30;;;;;;;0.30;0.30;;;;;;;;;;7372809;19;20113;-72
2022/09/15 11:23:03;;;;;;;1.88;1.10;;;;;;;;;;7375757;19;20109;-73
2022/09/15 11:25:31;;;;;;;0.30;0.30;;;;;;;;;;7375968;19;20105;-72
2022/09/15 11:28:21;;;;;;;0.30;0.30;;;;;;;;;;7373711;19;20128;-72
2022/09/15 11:31:09;;;;;;;0.63;0.63;;;;;;;;;;7363790;19;20140;-72
2022/09/15 11:33:50;;;;;;;0.30;0.30;;;;;;;;;;7377580;19;20142;-71
2022/09/15 11:36:20;;;;;;;0.30;0.30;;;;;;;;;;7380110;19;20528;-72
2022/09/15 11:39:06;;;;;;;0.30;0.30;;;;;;;;;;7371954;19;20105;-72
2022/09/15 11:41:47;;;;;;;0.30;0.30;;;;;;;;;;7379272;19;20527;-72
2022/09/15 11:44:21;;;;;;;0.30;0.30;;;;;;;;;;7377447;19;20373;-72
2022/09/15 11:47:09;;;;;;;0.30;0.30;;;;;;;;;;7375595;19;20140;-71
2022/09/15 11:49:51;;;;;;;0.30;0.30;;;;;;;;;;7375263;19;20131;-72
2022/09/15 11:52:35;;;;;;;0.30;0.30;;;;;;;;;;7372080;19;20109;-72
2022/09/15 11:55:24;;;;;;;0.30;0.30;;;;;;;;;;7358855;19;20184;-73
2022/09/15 11:57:57;;;;;;;0.98;0.98;;;;;;;;;;7369925;19;20108;-72
2022/09/15 12:00:22;;;;;;;0.30;0.30;;;;;;;;;;7366013;19;20462;-72
2022/09/15 12:03:22;;;;;;;0.20;0.20;;;;;;;;;;7370291;19;20104;-72
2022/09/15 12:05:51;;;;;;;0.30;0.30;;;;;;;;;;7374081;19;20580;-73
2022/09/15 12:08:28;;;;;;;0.30;0.30;;;;;;;;;;7371693;19;20109;-72
2022/09/15 12:10:55;;;;;;;0.40;0.40;;;;;;;;;;7370445;19;20113;-72
2022/09/15 12:13:23;;;;;;;0.30;0.30;;;;;;;;;;7369502;19;20626;-73
2022/09/15 12:15:49;;;;;;;0.20;0.20;;;;;;;;;;7370727;19;20120;-72
2022/09/15 12:18:26;;;;;;;0.30;0.30;;;;;;;;;;7367879;19;20109;-72
2022/09/15 12:21:10;;;;;;;0.30;0.30;;;;;;;;;;7376962;19;20481;-72
2022/09/15 12:23:39;;;;;;;0.30;0.30;;;;;;;;;;7378389;19;20129;-73
2022/09/15 12:26:19;;;;;;;0.30;0.30;;;;;;;;;;7377071;19;20184;-72
2022/09/15 12:28:53;;;;;;;0.32;0.32;;;;;;;;;;7374400;19;20117;-72
2022/09/15 12:31:33;;;;;;;0.30;0.30;;;;;;;;;;7371993;19;20457;-72
2022/09/15 12:34:05;;;;;;;0.30;0.30;;;;;;;;;;7360386;19;20336;-72
2022/09/15 12:36:38;;;;;;;0.30;0.30;;;;;;;;;;7370738;19;20130;-72
2022/09/15 12:39:24;;;;;;;0.30;0.30;;;;;;;;;;7361922;19;20109;-73
2022/09/15 12:41:52;;;;;;;0.30;0.30;;;;;;;;;;7367353;19;20579;-73
2022/09/15 12:44:46;;;;;;;0.30;0.30;;;;;;;;;;7372543;19;20337;-73
2022/09/15 12:47:25;;;;;;;0.25;0.25;;;;;;;;;;7377939;19;20762;-72
2022/09/15 12:49:51;;;;;;;0.30;0.30;;;;;;;;;;7377916;19;20127;-72
2022/09/15 12:52:18;;;;;;;0.30;0.30;;;;;;;;;;7377282;19;20583;-72
2022/09/15 12:54:51;;;;;;;0.30;0.30;;;;;;;;;;7376476;19;20156;-73
2022/09/15 12:57:27;;;;;;;0.30;0.30;;;;;;;;;;7376616;19;20109;-73
2022/09/15 13:00:22;;;;;;;0.35;0.35;;;;;;;;;;7378017;19;20112;-73
2022/09/15 13:02:50;;;;;;;0.30;0.30;;;;;;;;;;7380345;19;20116;-72
2022/09/15 13:05:40;;;;;;;0.30;0.30;;;;;;;;;;7377982;19;20101;-71
2022/09/15 13:08:17;;;;;;;0.30;0.30;;;;;;;;;;7381258;19;20172;-73
2022/09/15 13:11:21;;;;;;;0.30;0.30;;;;;;;;;;7378399;19;20105;-73
2022/09/15 13:13:51;;;;;;;0.30;0.30;;;;;;;;;;7376136;19;20622;-73
2022/09/15 13:16:35;;;;;;;0.50;0.50;;;;;;;;;;7376993;19;20121;-73
2022/09/15 13:19:23;;;;;;;0.30;0.30;;;;;;;;;;7387187;19;20113;-73
2022/09/15 13:22:05;;;;;;;0.40;0.40;;;;;;;;;;7386526;19;20116;-73
2022/09/15 13:24:52;;;;;;;0.30;0.30;;;;;;;;;;7386363;19;20129;-73
2022/09/15 13:27:25;;;;;;;0.30;0.30;;;;;;;;;;7383504;19;20109;-73
2022/09/15 13:30:07;;;;;;;0.32;0.32;;;;;;;;;;7383395;19;20139;-72
2022/09/15 13:33:04;;;;;;;0.30;0.30;;;;;;;;;;7385116;19;20607;-72
2022/09/15 13:35:51;;;;;;;0.55;0.55;;;;;;;;;;7384793;19;20131;-73
2022/09/15 13:38:20;;;;;;;0.30;0.30;;;;;;;;;;7382173;19;20643;-72
2022/09/15 13:40:55;;;;;;;0.50;0.50;;;;;;;;;;7386471;19;20102;-72
2022/09/15 13:43:48;;;;;;;0.45;0.45;;;;;;;;;;7386146;19;20120;-72
2022/09/15 13:46:42;;;;;;;0.60;0.60;;;;;;;;;;7384073;19;20121;-72
2022/09/15 13:49:32;;;;;;;0.30;0.30;;;;;;;;;;7384597;19;20113;-72
2022/09/15 13:52:02;;;;;;;0.63;0.63;;;;;;;;;;7386192;19;20117;-72
2022/09/15 13:54:27;;;;;;;0.35;0.35;;;;;;;;;;7379300;19;20636;-72
2022/09/15 13:56:52;;;;;;;0.30;0.30;;;;;;;;;;7378295;19;20113;-73
2022/09/15 13:59:23;;;;;;;0.30;0.30;;;;;;;;;;7379886;19;20101;-73
2022/09/15 14:01:49;;;;;;;0.68;0.68;;;;;;;;;;7375749;19;20170;-73
2022/09/15 14:04:22;;;;;;;0.60;0.60;;;;;;;;;;7379470;19;20117;-72
2022/09/15 14:06:52;;;;;;;0.30;0.30;;;;;;;;;;7377942;19;20122;-72
2022/09/15 14:09:22;;;;;;;0.30;0.30;;;;;;;;;;7377097;19;20448;-72
2022/09/15 14:11:50;;;;;;;0.30;0.30;;;;;;;;;;7372563;19;20109;-72
2022/09/15 14:14:29;;;;;;;0.30;0.30;;;;;;;;;;7370324;19;20149;-73
2022/09/15 14:16:55;;;;;;;0.40;0.40;;;;;;;;;;7376977;19;20113;-73
2022/09/15 14:19:29;;;;;;;0.30;0.30;;;;;;;;;;7377204;19;20605;-73
2022/09/15 14:21:54;;;;;;;0.30;0.30;;;;;;;;;;7370987;19;20105;-73
2022/09/15 14:24:21;;;;;;;0.50;0.50;;;;;;;;;;7370727;19;20158;-73
2022/09/15 14:26:47;;;;;;;0.30;0.30;;;;;;;;;;7370813;19;20191;-72
2022/09/15 14:29:17;;;;;;;0.30;0.30;;;;;;;;;;7367706;19;20148;-72
2022/09/15 14:31:43;;;;;;;0.20;0.20;;;;;;;;;;7366864;19;20574;-73
2022/09/15 14:34:18;;;;;;;0.40;0.40;;;;;;;;;;7367428;19;20149;-73
2022/09/15 14:36:44;;;;;;;0.25;0.25;;;;;;;;;;7371059;19;20866;-73
2022/09/15 14:39:09;;;;;;;0.30;0.30;;;;;;;;;;7375988;19;20121;-72
2022/09/15 14:41:35;;;;;;;0.30;0.30;;;;;;;;;;7380196;19;20227;-73
2022/09/15 14:44:02;;;;;;;0.30;0.30;;;;;;;;;;7373766;19;20163;-73
2022/09/15 14:46:36;;;;;;;0.40;0.40;;;;;;;;;;7375983;19;20121;-72
2022/09/15 14:49:11;;;;;;;0.30;0.30;;;;;;;;;;7374911;19;20359;-73
2022/09/15 14:51:37;;;;;;;0.30;0.30;;;;;;;;;;7381771;19;20173;-73
2022/09/15 14:54:03;;;;;;;0.30;0.30;;;;;;;;;;7381577;19;20176;-73
2022/09/15 14:56:32;;;;;;;0.20;0.20;;;;;;;;;;7377204;19;20101;-73
2022/09/15 14:59:06;;;;;;;0.30;0.30;;;;;;;;;;7375148;19;20201;-73
2022/09/15 15:01:36;;;;;;;0.73;0.73;;;;;;;;;;7378413;19;20112;-72
2022/09/15 15:04:08;;;;;;;0.30;0.30;;;;;;;;;;7375958;19;21072;-74
2022/09/15 15:06:37;;;;;;;0.30;0.30;;;;;;;;;;7376002;19;20154;-72
2022/09/15 15:09:20;;;;;;;0.30;0.30;;;;;;;;;;7378092;19;20137;-74
2022/09/15 15:11:54;;;;;;;0.40;0.40;;;;;;;;;;7375580;19;20105;-73
2022/09/15 15:14:19;;;;;;;0.20;0.20;;;;;;;;;;7375114;19;20148;-73
2022/09/15 15:17:00;;;;;;;0.38;0.38;;;;;;;;;;7371365;19;20101;-73
2022/09/15 15:19:45;;;;;;;0.30;0.30;;;;;;;;;;7370680;19;20188;-72
2022/09/15 15:22:10;;;;;;;0.60;0.60;;;;;;;;;;7373440;19;20191;-72
2022/09/15 15:24:40;;;;;;;0.30;0.30;;;;;;;;;;7379037;19;20125;-72
2022/09/15 15:27:25;;;;;;;0.30;0.30;;;;;;;;;;7375151;19;21013;-73
2022/09/15 15:29:51;;;;;;;0.25;0.25;;;;;;;;;;7377771;19;20109;-72
2022/09/15 15:32:20;;;;;;;0.20;0.20;;;;;;;;;;7371150;19;20464;-73
2022/09/15 15:34:49;;;;;;;0.30;0.30;;;;;;;;;;7369946;19;20148;-73
2022/09/15 15:37:33;;;;;;;0.30;0.30;;;;;;;;;;7374597;19;20150;-72
2022/09/15 15:40:00;;;;;;;0.30;0.30;;;;;;;;;;7365556;19;20185;-73
2022/09/15 15:42:27;;;;;;;0.30;0.30;;;;;;;;;;7375437;19;20564;-71
2022/09/15 15:45:20;;;;;;;0.30;0.30;;;;;;;;;;7372348;19;20193;-72
2022/09/15 15:47:45;;;;;;;0.25;0.25;;;;;;;;;;7375778;19;20113;-73
2022/09/15 15:50:18;;;;;;;0.30;0.30;;;;;;;;;;7381025;19;20124;-74
2022/09/15 15:52:44;;;;;;;0.20;0.20;;;;;;;;;;7380541;19;20250;-73
2022/09/15 15:55:14;;;;;;;0.30;0.30;;;;;;;;;;7381980;19;20693;-72
2022/09/15 15:57:39;;;;;;;0.30;0.30;;;;;;;;;;7380124;19;20117;-73
2022/09/15 16:00:14;;;;;;;0.30;0.30;;;;;;;;;;7371175;19;20132;-74
2022/09/15 16:02:40;;;;;;;0.30;0.30;;;;;;;;;;7375070;19;20120;-73
2022/09/15 16:05:05;;;;;;;0.30;0.30;;;;;;;;;;7366248;19;20138;-72
2022/09/15 16:07:31;;;;;;;0.30;0.30;;;;;;;;;;7382184;19;20574;-73
2022/09/15 16:09:57;;;;;;;0.30;0.30;;;;;;;;;;7376679;19;20109;-72
2022/09/15 16:12:23;;;;;;;0.30;0.30;;;;;;;;;;7378401;19;20194;-73
2022/09/15 16:14:48;;;;;;;0.30;0.30;;;;;;;;;;7378773;19;20152;-73
2022/09/15 16:17:13;;;;;;;0.30;0.30;;;;;;;;;;7373300;19;20105;-73
2022/09/15 16:19:39;;;;;;;0.30;0.30;;;;;;;;;;7370790;19;20128;-73
2022/09/15 16:22:04;;;;;;;0.30;0.30;;;;;;;;;;7374398;19;20478;-72
2022/09/15 16:24:30;;;;;;;0.30;0.30;;;;;;;;;;7370840;19;20121;-73
2022/09/15 16:26:55;;;;;;;0.30;0.30;;;;;;;;;;7381626;19;20575;-72
2022/09/15 16:29:34;;;;;;;0.30;0.30;;;;;;;;;;7377866;19;20169;-73
2022/09/15 16:32:06;;;;;;;0.30;0.30;;;;;;;;;;7375016;19;20120;-73
2022/09/15 16:34:31;;;;;;;0.30;0.30;;;;;;;;;;7366405;19;20137;-73
2022/09/15 16:36:56;;;;;;;0.28;0.28;;;;;;;;;;7373999;19;20130;-73
2022/09/15 16:39:22;;;;;;;0.20;0.20;;;;;;;;;;7379473;19;20133;-73
2022/09/15 16:41:47;;;;;;;0.30;0.30;;;;;;;;;;7366881;19;20113;-73
2022/09/15 16:44:17;;;;;;;0.30;0.30;;;;;;;;;;7356800;19;20128;-72
2022/09/15 16:46:43;;;;;;;0.30;0.30;;;;;;;;;;7373283;19;20938;-71
2022/09/15 16:49:08;;;;;;;0.40;0.40;;;;;;;;;;7363863;19;20113;-73
2022/09/15 16:51:33;;;;;;;0.30;0.30;;;;;;;;;;7371419;19;20114;-73
2022/09/15 16:53:59;;;;;;;0.30;0.30;;;;;;;;;;7372935;19;20558;-72
2022/09/15 16:56:24;;;;;;;0.30;0.30;;;;;;;;;;7381910;19;20730;-73
2022/09/15 16:58:52;;;;;;;0.20;0.20;;;;;;;;;;7377431;19;20113;-72
2022/09/15 17:01:19;;;;;;;0.40;0.40;;;;;;;;;;7374309;19;20116;-72
2022/09/15 17:03:44;;;;;;;0.40;0.40;;;;;;;;;;7379166;19;20149;-72
2022/09/15 17:06:16;;;;;;;0.30;0.30;;;;;;;;;;7379600;19;20442;-73